Time;durP1;ratioP1;P1;durP2;ratioP2;P2;SDS_P1;SDS_P2;PMS_P1;PMS_P2;Temp;Humidity;BMP_temperature;BMP_pressure;BME280_temperature;BME280_humidity;BME280_pressure;Samples;Min_cycle;Max_cycle;Signal;HPM_P1;HPM_P2
2023/03/28 00:00:47;;;;;;;5.60;3.03;;;;;;;6.39;67.66;101352.19;5026496;28;20395;-73
2023/03/28 00:03:13;;;;;;;3.42;2.95;;;;;;;6.43;67.62;101356.13;5017436;28;20412;-72
2023/03/28 00:05:39;;;;;;;2.80;2.60;;;;;;;6.39;67.41;101354.88;5033111;28;20398;-72
2023/03/28 00:08:05;;;;;;;5.78;3.05;;;;;;;6.38;67.57;101355.88;5024417;28;20389;-73
2023/03/28 00:10:30;;;;;;;3.80;2.97;;;;;;;6.38;67.49;101354.03;5024350;28;20444;-72
2023/03/28 00:12:55;;;;;;;4.63;2.73;;;;;;;6.38;67.28;101359.41;5016795;28;20479;-72
2023/03/28 00:15:21;;;;;;;4.13;3.10;;;;;;;6.42;67.02;101360.66;5032859;28;20402;-73
2023/03/28 00:17:48;;;;;;;4.25;3.30;;;;;;;6.40;67.07;101365.44;5025323;28;20860;-72
2023/03/28 00:20:14;;;;;;;4.15;3.08;;;;;;;6.36;66.70;101366.84;5025030;28;20399;-72
2023/03/28 00:22:40;;;;;;;4.18;2.95;;;;;;;6.33;67.06;101369.91;5033091;28;20415;-72
2023/03/28 00:25:06;;;;;;;5.53;3.00;;;;;;;6.30;66.81;101374.84;5016575;28;20403;-72
2023/03/28 00:27:33;;;;;;;5.20;2.92;;;;;;;6.31;66.66;101371.16;5027568;28;20936;-72
2023/03/28 00:29:59;;;;;;;7.05;2.88;;;;;;;6.30;66.93;101375.69;5032727;28;20525;-72
2023/03/28 00:32:24;;;;;;;3.95;2.78;;;;;;;6.30;66.53;101378.38;5032691;28;20457;-73
2023/03/28 00:34:49;;;;;;;3.80;2.50;;;;;;;6.23;67.08;101377.50;5016431;28;20400;-72
2023/03/28 00:37:16;;;;;;;6.10;2.67;;;;;;;6.07;66.97;101375.91;5044431;28;20419;-73
2023/03/28 00:39:42;;;;;;;3.80;2.67;;;;;;;5.98;67.45;101379.78;5022747;28;20422;-72
2023/03/28 00:42:12;;;;;;;3.85;2.92;;;;;;;5.95;67.41;101377.47;5018775;28;20737;-73
2023/03/28 00:44:46;;;;;;;4.22;3.55;;;;;;;5.94;67.14;101385.72;5028798;28;20384;-72
2023/03/28 00:47:26;;;;;;;4.57;2.70;;;;;;;5.88;66.62;101381.13;5019305;28;20434;-72
2023/03/28 00:49:57;;;;;;;3.65;3.35;;;;;;;5.87;66.42;101379.44;5019863;28;20396;-72
2023/03/28 00:52:28;;;;;;;6.90;4.95;;;;;;;5.89;66.18;101380.09;5028837;28;20391;-72
2023/03/28 00:54:56;;;;;;;3.27;2.90;;;;;;;5.84;66.24;101379.78;5032228;28;20455;-72
2023/03/28 00:57:23;;;;;;;3.40;2.28;;;;;;;5.84;66.29;101383.31;5021465;28;20397;-72
2023/03/28 00:59:49;;;;;;;3.17;2.30;;;;;;;5.82;66.17;101387.22;5024526;28;20395;-72
2023/03/28 01:02:15;;;;;;;4.07;2.05;;;;;;;5.82;66.52;101381.84;5015900;28;20392;-72
2023/03/28 01:04:52;;;;;;;3.67;2.27;;;;;;;5.85;66.12;101390.38;5027121;28;20734;-72
2023/03/28 01:07:17;;;;;;;2.80;2.10;;;;;;;5.85;66.27;101392.22;5021209;28;20402;-72
2023/03/28 01:09:43;;;;;;;4.10;2.65;;;;;;;5.85;66.19;101398.44;5018562;28;20398;-72
2023/03/28 01:12:09;;;;;;;3.67;2.30;;;;;;;5.76;65.98;101396.91;5029870;28;20398;-72
2023/03/28 01:14:38;;;;;;;3.92;2.90;;;;;;;5.69;66.19;101394.16;5026418;28;20400;-72
2023/03/28 01:17:03;;;;;;;4.82;2.85;;;;;;;5.63;66.70;101400.25;5020394;28;20383;-72
2023/03/28 01:19:49;;;;;;;4.43;3.00;;;;;;;5.60;66.80;101400.63;5032031;28;20390;-72
2023/03/28 01:22:35;;;;;;;6.32;3.13;;;;;;;5.56;67.04;101398.53;5015891;28;20387;-72
2023/03/28 01:25:34;;;;;;;5.35;3.15;;;;;;;5.44;67.54;101400.88;5031895;28;20470;-72
2023/03/28 01:28:25;;;;;;;3.60;3.00;;;;;;;5.50;68.00;101399.31;5046304;28;20476;-72
2023/03/28 01:30:56;;;;;;;5.70;3.22;;;;;;;5.54;67.56;101405.94;5021922;28;20393;-72
2023/03/28 01:34:09;;;;;;;4.35;2.90;;;;;;;5.53;68.26;101402.41;5026349;28;20464;-73
2023/03/28 01:36:58;;;;;;;4.75;3.00;;;;;;;5.52;68.00;101402.63;4951423;29;20418;-72
2023/03/28 01:39:42;;;;;;;3.47;3.17;;;;;;;5.49;68.53;101409.22;4966650;28;20423;-72
2023/03/28 01:42:20;;;;;;;4.93;3.28;;;;;;;5.49;68.14;101405.69;4996483;28;20395;-73
2023/03/28 01:45:14;;;;;;;5.47;3.58;;;;;;;5.47;68.47;101400.47;5022844;28;20395;-72
2023/03/28 01:48:09;;;;;;;3.88;3.55;;;;;;;5.44;68.26;101405.41;5015462;28;20424;-72
2023/03/28 01:50:46;;;;;;;5.00;4.00;;;;;;;5.34;68.38;101400.31;5031573;28;20454;-72
2023/03/28 01:53:31;;;;;;;4.78;3.25;;;;;;;5.08;69.45;101403.50;5022290;28;20470;-72
2023/03/28 01:56:09;;;;;;;5.53;3.38;;;;;;;4.92;69.55;101405.53;5018000;28;20466;-72
2023/03/28 01:58:46;;;;;;;4.13;3.17;;;;;;;4.74;69.64;101407.78;5031462;28;20396;-72
2023/03/28 02:01:35;;;;;;;5.55;3.28;;;;;;;4.57;70.03;101404.41;5015873;28;20389;-72
2023/03/28 02:04:07;;;;;;;3.65;2.75;;;;;;;4.48;70.56;101406.31;5031440;28;20418;-72
2023/03/28 02:06:35;;;;;;;5.75;2.97;;;;;;;4.61;70.16;101409.22;5019097;28;20428;-72
2023/03/28 02:09:02;;;;;;;3.88;3.25;;;;;;;4.67;70.03;101411.19;5027901;28;20743;-72
2023/03/28 02:11:32;;;;;;;3.55;2.67;;;;;;;4.86;69.46;101395.53;5026748;28;20819;-73
2023/03/28 02:14:05;;;;;;;4.95;2.80;;;;;;;4.94;68.96;101398.97;5031344;28;20449;-73
2023/03/28 02:16:35;;;;;;;4.70;2.30;;;;;;;4.99;69.01;101399.25;5020997;28;20389;-73
2023/03/28 02:19:02;;;;;;;2.83;2.53;;;;;;;4.99;68.50;101393.88;5020747;28;20889;-72
2023/03/28 02:21:49;;;;;;;3.38;2.70;;;;;;;5.00;68.63;101397.41;5034871;28;20417;-72
2023/03/28 02:24:15;;;;;;;3.53;2.30;;;;;;;4.96;68.78;101391.56;5022561;28;20428;-72
2023/03/28 02:26:42;;;;;;;3.20;2.63;;;;;;;4.98;68.50;101392.22;5031267;28;20890;-72
2023/03/28 02:29:08;;;;;;;3.47;3.20;;;;;;;4.99;68.77;101395.72;5017932;28;20948;-72
2023/03/28 02:31:35;;;;;;;6.70;3.30;;;;;;;4.98;68.72;101386.00;5027041;28;20384;-72
2023/03/28 02:34:00;;;;;;;6.55;2.80;;;;;;;4.97;68.76;101392.41;5026849;28;20387;-72
2023/03/28 02:36:32;;;;;;;6.40;2.80;;;;;;;4.97;69.14;101387.03;5018468;28;20400;-72
2023/03/28 02:39:06;;;;;;;4.50;2.70;;;;;;;4.97;68.99;101387.03;5018830;28;20546;-72
2023/03/28 02:42:01;;;;;;;8.25;2.90;;;;;;;4.97;68.80;101392.41;5034789;28;20391;-72
2023/03/28 02:44:46;;;;;;;3.58;2.72;;;;;;;4.94;69.14;101388.22;5018480;28;20778;-72
2023/03/28 02:47:26;;;;;;;6.60;2.50;;;;;;;4.94;68.95;101390.91;5027651;28;20468;-72
2023/03/28 02:50:04;;;;;;;5.25;4.32;;;;;;;4.95;69.16;101397.13;5026376;28;20439;-72
2023/03/28 02:52:50;;;;;;;4.93;3.33;;;;;;;4.94;68.77;101388.22;5025057;28;20390;-72
2023/03/28 02:55:38;;;;;;;5.03;2.38;;;;;;;4.94;69.06;101390.91;5034430;28;20387;-72
2023/03/28 02:58:03;;;;;;;4.27;3.20;;;;;;;4.92;68.81;101392.13;5025475;28;20391;-72
2023/03/28 03:00:29;;;;;;;3.23;2.87;;;;;;;4.91;69.06;101388.59;5034428;28;20461;-72
2023/03/28 03:02:56;;;;;;;5.85;2.90;;;;;;;4.87;69.08;101386.47;5027246;28;20416;-72
2023/03/28 03:05:21;;;;;;;2.80;2.57;;;;;;;4.85;69.45;101375.06;5025348;28;20434;-72
2023/03/28 03:07:48;;;;;;;5.80;2.97;;;;;;;4.86;69.51;101377.59;5019668;28;20433;-72
2023/03/28 03:10:15;;;;;;;8.48;3.40;;;;;;;4.85;69.45;101383.13;5029669;28;20395;-73
2023/03/28 03:12:41;;;;;;;4.13;3.25;;;;;;;4.81;69.69;101389.91;5022681;28;20759;-73
2023/03/28 03:15:07;;;;;;;8.23;3.23;;;;;;;4.80;69.96;101385.56;5034056;28;20487;-72
2023/03/28 03:17:33;;;;;;;4.65;3.05;;;;;;;4.85;69.60;101388.50;5019927;28;20397;-73
2023/03/28 03:19:58;;;;;;;4.07;2.87;;;;;;;4.85;69.55;101388.50;5032016;28;20395;-73
2023/03/28 03:22:24;;;;;;;6.83;2.90;;;;;;;4.87;69.89;101390.00;5028635;28;20790;-73
2023/03/28 03:24:50;;;;;;;4.03;3.08;;;;;;;4.84;69.82;101389.53;5022154;28;20398;-73
2023/03/28 03:27:19;;;;;;;6.33;2.87;;;;;;;4.87;69.90;101386.47;5019900;28;20381;-73
2023/03/28 03:29:45;;;;;;;3.33;2.90;;;;;;;4.84;69.63;101387.66;5031163;28;20383;-73
2023/03/28 03:32:10;;;;;;;4.97;3.05;;;;;;;4.82;69.92;101388.88;5028751;28;20389;-73
2023/03/28 03:34:35;;;;;;;3.67;2.95;;;;;;;4.80;70.03;101393.59;5023000;28;20375;-73
2023/03/28 03:37:01;;;;;;;5.40;3.20;;;;;;;4.78;70.13;101392.94;5020964;28;20393;-73
2023/03/28 03:39:27;;;;;;;5.70;2.92;;;;;;;4.78;69.70;101395.63;5029946;28;20399;-73
2023/03/28 03:41:52;;;;;;;3.97;2.73;;;;;;;4.78;70.12;101392.94;5017767;28;20418;-73
2023/03/28 03:44:17;;;;;;;4.00;3.07;;;;;;;4.72;69.98;101387.31;5024972;28;20491;-73
2023/03/28 03:46:43;;;;;;;5.72;2.85;;;;;;;4.71;70.15;101385.63;5025069;28;20397;-72
2023/03/28 03:49:09;;;;;;;4.27;3.07;;;;;;;4.70;70.06;101386.66;5033425;28;20732;-73
2023/03/28 03:51:34;;;;;;;3.78;2.65;;;;;;;4.72;70.16;101386.47;5017087;28;20395;-73
2023/03/28 03:53:59;;;;;;;3.87;3.07;;;;;;;4.73;70.22;101385.47;5035468;28;20402;-73
2023/03/28 03:56:25;;;;;;;6.87;2.60;;;;;;;4.71;70.01;101384.78;5033352;28;20756;-73
2023/03/28 03:58:50;;;;;;;5.17;2.90;;;;;;;4.71;69.64;101388.31;5018097;28;20419;-73
2023/03/28 04:01:16;;;;;;;3.57;2.80;;;;;;;4.72;69.96;101389.16;5027476;28;20433;-73
2023/03/28 04:03:41;;;;;;;8.87;2.97;;;;;;;4.70;70.14;101388.50;5018965;28;20419;-73
2023/03/28 04:06:07;;;;;;;5.90;3.30;;;;;;;4.63;70.06;101395.63;5033071;28;20407;-73
2023/03/28 04:08:34;;;;;;;4.30;3.57;;;;;;;4.62;70.17;101399.31;5020167;28;20401;-73
2023/03/28 04:10:59;;;;;;;4.85;4.22;;;;;;;4.61;70.35;101398.47;5029422;28;20759;-73
2023/03/28 04:13:24;;;;;;;3.63;3.33;;;;;;;4.59;70.29;101399.69;5023013;28;20387;-73
2023/03/28 04:15:50;;;;;;;5.97;3.87;;;;;;;4.57;70.41;101401.72;5028220;28;20449;-73
2023/03/28 04:18:16;;;;;;;7.23;3.77;;;;;;;4.35;71.09;101395.38;5029011;28;20885;-73
2023/03/28 04:20:45;;;;;;;4.80;3.90;;;;;;;4.29;71.01;101398.78;5017016;28;20432;-73
2023/03/28 04:23:11;;;;;;;4.07;3.40;;;;;;;4.28;71.48;101402.47;5020510;28;20417;-73
2023/03/28 04:25:36;;;;;;;5.00;3.80;;;;;;;4.25;71.61;101402.84;5020466;28;20905;-74
2023/03/28 04:28:02;;;;;;;5.00;3.30;;;;;;;4.22;71.44;101400.53;5029255;28;20825;-73
2023/03/28 04:30:27;;;;;;;3.10;2.67;;;;;;;4.17;71.52;101403.78;5022363;28;20455;-73
2023/03/28 04:32:53;;;;;;;5.72;3.47;;;;;;;3.94;72.13;101397.56;5019426;28;20482;-73
2023/03/28 04:35:19;;;;;;;7.20;3.63;;;;;;;4.02;71.62;101407.38;5024529;28;20426;-73
2023/03/28 04:37:46;;;;;;;4.25;3.00;;;;;;;4.08;71.49;101406.69;5023075;28;20500;-73
2023/03/28 04:40:14;;;;;;;3.83;3.42;;;;;;;4.11;71.31;101412.53;5018227;28;20399;-73
2023/03/28 04:42:40;;;;;;;6.57;3.40;;;;;;;4.09;71.32;101402.97;5022216;28;20727;-73
2023/03/28 04:45:07;;;;;;;3.88;3.47;;;;;;;4.07;71.30;101403.19;5033430;28;20448;-73
2023/03/28 04:47:32;;;;;;;4.75;3.30;;;;;;;4.05;71.52;101399.00;5027796;28;20878;-73
2023/03/28 04:49:57;;;;;;;6.63;3.13;;;;;;;4.05;71.41;101407.06;5031213;28;20414;-73
2023/03/28 04:52:23;;;;;;;5.03;3.33;;;;;;;4.02;71.38;101407.38;5029683;28;20491;-74
2023/03/28 04:54:48;;;;;;;5.27;3.80;;;;;;;3.99;71.31;101413.13;5019580;28;20407;-74
2023/03/28 04:57:14;;;;;;;10.57;8.17;;;;;;;3.98;71.71;101417.66;5024008;28;20506;-73
2023/03/28 04:59:39;;;;;;;7.00;4.22;;;;;;;3.88;71.79;101421.59;5017629;28;20409;-74
2023/03/28 05:02:05;;;;;;;8.20;5.05;;;;;;;3.93;71.79;101417.34;5014923;28;20443;-74
2023/03/28 05:04:30;;;;;;;7.13;4.63;;;;;;;3.96;71.56;101430.41;5030369;28;20450;-73
2023/03/28 05:06:56;;;;;;;5.13;3.97;;;;;;;3.94;71.46;101435.13;5030296;28;20419;-72
2023/03/28 05:09:22;;;;;;;6.13;3.90;;;;;;;3.93;71.49;101430.75;5027455;28;20859;-72
2023/03/28 05:11:47;;;;;;;5.33;3.57;;;;;;;3.96;71.37;101438.44;5034827;28;20431;-72
2023/03/28 05:14:13;;;;;;;5.27;3.63;;;;;;;3.96;71.44;101437.59;5025427;28;20414;-72
2023/03/28 05:16:38;;;;;;;6.25;4.45;;;;;;;3.93;71.16;101443.34;5022906;28;20421;-72
2023/03/28 05:19:04;;;;;;;7.97;4.47;;;;;;;3.90;71.23;101446.38;5024341;28;20453;-73
2023/03/28 05:21:29;;;;;;;6.80;4.10;;;;;;;3.90;71.55;101455.25;5024537;28;20409;-72
2023/03/28 05:23:55;;;;;;;6.73;3.57;;;;;;;3.87;71.62;101455.63;5031014;28;20451;-72
2023/03/28 05:26:20;;;;;;;9.90;4.83;;;;;;;3.88;71.51;101449.25;5025012;28;20403;-72
2023/03/28 05:28:45;;;;;;;11.73;5.53;;;;;;;3.91;71.53;101458.78;5024799;28;20486;-72
2023/03/28 05:31:11;;;;;;;8.33;4.83;;;;;;;3.67;71.52;101467.78;5031671;28;20390;-73
2023/03/28 05:33:37;;;;;;;6.85;3.90;;;;;;;3.66;71.93;101464.25;5028641;28;20478;-72
2023/03/28 05:36:03;;;;;;;5.20;3.60;;;;;;;3.78;71.67;101461.19;5016747;28;20434;-72
2023/03/28 05:38:30;;;;;;;6.50;3.30;;;;;;;3.82;71.60;101468.69;5022957;28;20741;-72
2023/03/28 05:40:57;;;;;;;5.53;2.97;;;;;;;3.84;71.61;101460.50;5024409;28;20384;-72
2023/03/28 05:43:23;;;;;;;6.55;3.33;;;;;;;3.85;71.50;101467.53;5026820;28;20427;-72
2023/03/28 05:45:48;;;;;;;6.13;3.80;;;;;;;3.87;71.27;101469.03;5015259;28;20942;-73
2023/03/28 05:48:14;;;;;;;7.95;5.03;;;;;;;3.88;71.36;101472.53;5021730;28;20426;-72
2023/03/28 05:50:39;;;;;;;16.05;6.25;;;;;;;3.88;71.39;101476.06;5025781;28;20492;-73
2023/03/28 05:53:05;;;;;;;15.43;7.13;;;;;;;3.88;71.70;101481.44;5029609;28;20461;-73
2023/03/28 05:55:30;;;;;;;10.30;5.23;;;;;;;3.90;71.54;101481.22;5019192;28;20403;-73
2023/03/28 05:57:56;;;;;;;10.40;5.50;;;;;;;3.94;71.30;101483.41;5030740;28;20410;-73
2023/03/28 06:00:22;;;;;;;7.60;4.17;;;;;;;3.97;71.19;101484.88;5034727;28;20870;-73
2023/03/28 06:02:50;;;;;;;6.30;4.18;;;;;;;4.02;71.06;101482.50;5022132;28;20416;-73
2023/03/28 06:05:16;;;;;;;5.20;2.83;;;;;;;4.08;71.15;101487.97;5046944;28;20379;-73
2023/03/28 06:07:42;;;;;;;10.00;3.55;;;;;;;4.17;71.23;101480.72;5035520;28;20750;-72
2023/03/28 06:10:08;;;;;;;16.38;6.53;;;;;;;4.25;70.96;101480.66;5025309;28;20381;-73
2023/03/28 06:12:34;;;;;;;6.47;3.42;;;;;;;4.31;70.65;101487.19;5033135;28;20421;-73
2023/03/28 06:14:59;;;;;;;19.73;7.10;;;;;;;4.37;70.74;101478.41;5032760;28;20387;-72
2023/03/28 06:17:24;;;;;;;13.73;5.20;;;;;;;4.43;70.41;101481.19;5015985;28;20426;-73
2023/03/28 06:19:50;;;;;;;6.60;4.60;;;;;;;4.53;70.49;101481.78;5018607;28;20404;-73
2023/03/28 06:22:15;;;;;;;7.07;3.83;;;;;;;4.58;70.63;101482.06;5032790;28;20414;-73
2023/03/28 06:24:41;;;;;;;6.93;3.27;;;;;;;4.42;70.67;101482.22;5018938;28;20393;-73
2023/03/28 06:27:07;;;;;;;4.93;3.23;;;;;;;4.54;70.79;101470.03;5030753;28;20584;-73
2023/03/28 06:29:32;;;;;;;6.43;3.58;;;;;;;4.73;70.36;101479.44;5026778;28;20910;-73
2023/03/28 06:31:57;;;;;;;11.20;5.30;;;;;;;4.66;70.34;101479.31;5026830;28;20438;-72
2023/03/28 06:34:23;;;;;;;12.27;5.90;;;;;;;4.76;70.18;101478.22;5031659;28;20739;-73
2023/03/28 06:36:48;;;;;;;6.13;2.93;;;;;;;4.87;69.22;101483.16;5018756;28;20497;-72
2023/03/28 06:39:13;;;;;;;7.57;3.28;;;;;;;5.11;68.92;101488.28;5027827;28;20428;-73
2023/03/28 06:41:39;;;;;;;3.47;2.70;;;;;;;5.19;68.45;101489.03;5020565;28;20409;-72
2023/03/28 06:44:05;;;;;;;4.63;2.63;;;;;;;5.42;68.34;101491.63;5034642;28;20421;-73
2023/03/28 06:46:30;;;;;;;3.37;2.97;;;;;;;5.40;68.16;101490.97;5041895;28;20481;-73
2023/03/28 06:48:55;;;;;;;5.53;3.00;;;;;;;5.35;68.42;101487.19;5033781;28;20453;-73
2023/03/28 06:51:21;;;;;;;3.77;2.73;;;;;;;5.39;68.50;101493.84;5023442;28;20462;-73
2023/03/28 06:53:46;;;;;;;11.77;3.33;;;;;;;5.22;69.55;101504.78;5021099;28;20409;-72
2023/03/28 06:56:12;;;;;;;4.37;2.70;;;;;;;5.24;69.68;101509.97;5025896;28;20397;-73
2023/03/28 06:58:38;;;;;;;7.75;3.45;;;;;;;5.23;69.81;101502.94;5033829;28;20817;-72
2023/03/28 07:01:03;;;;;;;6.30;3.78;;;;;;;5.27;69.56;101508.78;5033149;28;20403;-72
2023/03/28 07:03:28;;;;;;;4.07;3.00;;;;;;;5.39;69.49;101510.81;5022094;28;20415;-72
2023/03/28 07:05:54;;;;;;;3.90;3.23;;;;;;;5.57;68.72;101518.50;5030329;28;20403;-72
2023/03/28 07:08:20;;;;;;;7.40;4.75;;;;;;;5.73;68.54;101515.59;5029745;28;20393;-72
2023/03/28 07:10:45;;;;;;;5.63;4.00;;;;;;;5.69;68.73;101520.53;5018759;28;20490;-72
2023/03/28 07:13:11;;;;;;;10.25;4.82;;;;;;;5.68;68.84;101518.03;5025395;28;20395;-72
2023/03/28 07:15:37;;;;;;;7.00;3.72;;;;;;;5.73;68.34;101516.44;5034145;28;20485;-72
2023/03/28 07:18:02;;;;;;;6.00;3.57;;;;;;;5.80;68.21;101521.06;5017900;28;20393;-72
2023/03/28 07:20:27;;;;;;;16.43;6.70;;;;;;;5.88;67.90;101523.69;5026378;28;20432;-72
2023/03/28 07:22:53;;;;;;;6.10;3.73;;;;;;;5.93;68.10;101524.78;5024141;28;20418;-72
2023/03/28 07:25:19;;;;;;;10.23;4.97;;;;;;;6.08;67.39;101532.84;5031229;28;20882;-72
2023/03/28 07:27:44;;;;;;;8.77;5.05;;;;;;;6.21;66.91;101533.81;5032289;28;20470;-72
2023/03/28 07:30:10;;;;;;;9.02;4.32;;;;;;;6.29;66.31;101535.53;5017986;28;20478;-73
2023/03/28 07:32:36;;;;;;;7.55;4.30;;;;;;;6.34;66.67;101535.81;5024273;28;20536;-72
2023/03/28 07:35:03;;;;;;;8.45;4.32;;;;;;;6.42;65.78;101543.75;5026776;28;20794;-72
2023/03/28 07:37:28;;;;;;;13.55;5.47;;;;;;;6.26;66.90;101539.44;5017270;28;20404;-72
2023/03/28 07:39:55;;;;;;;13.35;5.18;;;;;;;6.23;66.71;101537.16;5029289;28;20895;-72
2023/03/28 07:42:20;;;;;;;6.15;4.05;;;;;;;6.13;66.75;101546.53;5019821;28;20832;-72
2023/03/28 07:44:46;;;;;;;9.00;4.07;;;;;;;6.09;67.22;101542.59;5025874;28;20469;-72
2023/03/28 07:47:11;;;;;;;9.10;4.63;;;;;;;6.11;67.74;101545.91;5017817;28;20392;-72
2023/03/28 07:49:38;;;;;;;10.70;4.20;;;;;;;6.20;67.35;101542.06;5029954;28;20389;-72
2023/03/28 07:52:04;;;;;;;4.63;3.85;;;;;;;6.26;67.18;101536.75;5023518;28;20848;-72
2023/03/28 07:54:31;;;;;;;10.45;4.85;;;;;;;6.28;67.38;101541.13;5022025;28;20484;-72
2023/03/28 07:56:57;;;;;;;8.75;3.67;;;;;;;6.29;67.31;101540.91;5028521;28;20423;-72
2023/03/28 07:59:22;;;;;;;10.07;4.53;;;;;;;6.36;67.26;101544.53;5033239;28;20894;-72
2023/03/28 08:01:48;;;;;;;9.80;4.10;;;;;;;6.50;67.28;101548.19;5025995;28;20408;-72
2023/03/28 08:04:13;;;;;;;11.97;4.40;;;;;;;6.46;67.32;101541.50;5014803;28;20428;-72
2023/03/28 08:06:39;;;;;;;6.03;3.50;;;;;;;6.46;66.76;101549.59;5027297;28;20786;-72
2023/03/28 08:09:09;;;;;;;8.03;4.37;;;;;;;6.45;66.65;101553.34;5031189;28;20400;-72
2023/03/28 08:11:36;;;;;;;6.25;4.28;;;;;;;6.53;66.98;101545.94;5019227;28;20418;-72
2023/03/28 08:14:03;;;;;;;7.18;4.32;;;;;;;6.70;66.39;101549.22;5020740;28;20488;-72
2023/03/28 08:16:29;;;;;;;8.50;4.18;;;;;;;6.78;66.06;101557.19;5027712;28;20441;-72
2023/03/28 08:18:54;;;;;;;6.28;3.85;;;;;;;6.85;65.41;101554.56;5031355;28;20391;-72
2023/03/28 08:21:20;;;;;;;6.77;3.83;;;;;;;6.91;65.50;101553.78;5019007;28;20868;-72
2023/03/28 08:23:45;;;;;;;8.10;4.00;;;;;;;6.96;65.60;101551.31;5023523;28;20444;-72
2023/03/28 08:26:11;;;;;;;9.23;3.83;;;;;;;7.00;65.40;101547.22;5025835;28;20399;-72
2023/03/28 08:28:37;;;;;;;9.25;4.93;;;;;;;7.08;65.46;101549.78;5031070;28;20390;-72
2023/03/28 08:31:12;;;;;;;7.15;4.20;;;;;;;7.31;64.41;101561.13;5015318;28;20399;-72
2023/03/28 08:33:39;;;;;;;12.68;6.05;;;;;;;7.68;63.63;101555.34;5022327;28;20385;-72
2023/03/28 08:36:05;;;;;;;6.18;3.40;;;;;;;7.74;63.44;101551.84;5026345;28;20403;-72
2023/03/28 08:38:30;;;;;;;9.32;3.88;;;;;;;7.69;63.46;101548.09;5031230;28;20447;-72
2023/03/28 08:41:08;;;;;;;8.63;4.70;;;;;;;7.75;63.29;101547.28;5017727;28;20398;-72
2023/03/28 08:43:54;;;;;;;12.63;4.28;;;;;;;7.83;63.16;101564.16;5021869;28;20417;-72
2023/03/28 08:46:21;;;;;;;8.30;3.97;;;;;;;8.05;62.67;101559.47;5028605;28;20391;-72
2023/03/28 08:48:48;;;;;;;9.68;4.03;;;;;;;8.17;62.38;101557.84;5016381;28;20420;-72
2023/03/28 08:51:25;;;;;;;13.90;4.70;;;;;;;8.20;61.75;101556.63;5023969;28;20385;-72
2023/03/28 08:54:13;;;;;;;7.38;3.40;;;;;;;8.21;61.20;101558.28;5017387;28;20435;-72
2023/03/28 08:56:45;;;;;;;4.90;2.70;;;;;;;8.33;59.24;101557.50;5017182;28;20391;-72
2023/03/28 08:59:14;;;;;;;6.28;2.83;;;;;;;8.84;57.57;101554.28;5032191;28;20445;-72
2023/03/28 09:01:40;;;;;;;6.35;2.95;;;;;;;9.82;54.85;101546.03;5020035;28;20541;-72
2023/03/28 09:04:05;;;;;;;7.70;3.10;;;;;;;10.48;53.09;101553.06;5015900;28;20425;-72
2023/03/28 09:06:43;;;;;;;6.90;3.10;;;;;;;10.35;53.60;101556.66;5026097;28;20388;-72
2023/03/28 09:09:33;;;;;;;6.68;2.85;;;;;;;9.83;54.43;101555.84;5037202;28;20797;-72
2023/03/28 09:12:08;;;;;;;7.05;3.17;;;;;;;9.58;54.22;101551.34;5030006;28;20494;-72
2023/03/28 09:14:45;;;;;;;6.50;2.45;;;;;;;9.49;54.53;101550.72;5015382;28;20511;-71
2023/03/28 09:17:30;;;;;;;3.58;2.10;;;;;;;9.72;54.36;101550.22;5024143;28;20394;-72
2023/03/28 09:20:18;;;;;;;6.50;2.50;;;;;;;9.99;53.17;101542.84;5015835;28;20463;-72
2023/03/28 09:22:51;;;;;;;4.45;2.58;;;;;;;10.30;52.65;101542.97;5025253;28;20998;-72
2023/03/28 09:25:50;;;;;;;6.93;2.72;;;;;;;10.72;52.12;101546.84;5025720;28;20735;-72
2023/03/28 09:28:21;;;;;;;5.93;3.00;;;;;;;11.02;52.06;101541.63;5017945;28;20387;-72
2023/03/28 09:30:50;;;;;;;6.22;2.90;;;;;;;11.08;51.94;101543.44;5027286;28;20412;-72
2023/03/28 09:33:25;;;;;;;5.05;2.95;;;;;;;11.31;51.57;101543.66;5026730;28;20418;-72
2023/03/28 09:35:53;;;;;;;7.13;2.92;;;;;;;11.51;51.10;101547.00;5017263;28;20407;-73
2023/03/28 09:38:28;;;;;;;4.63;2.83;;;;;;;11.68;50.87;101542.66;5034796;28;20774;-73
2023/03/28 09:40:58;;;;;;;6.77;3.53;;;;;;;11.71;49.65;101539.50;5019642;28;20416;-73
2023/03/28 09:43:34;;;;;;;10.48;5.57;;;;;;;11.90;49.18;101534.91;5028815;28;20411;-73
2023/03/28 09:46:02;;;;;;;6.18;2.70;;;;;;;12.44;48.17;101533.97;5018072;28;20395;-72
2023/03/28 09:48:30;;;;;;;198.82;23.42;;;;;;;12.72;47.16;101526.00;5021227;28;20438;-72
2023/03/28 09:51:00;;;;;;;775.85;87.13;;;;;;;13.04;45.98;101536.63;5026197;28;20387;-73
2023/03/28 09:53:36;;;;;;;1559.43;190.48;;;;;;;13.49;45.56;101535.81;5027495;28;20485;-73
2023/03/28 09:56:25;;;;;;;1999.90;360.65;;;;;;;14.35;43.47;101529.47;5023142;28;20412;-72
2023/03/28 09:59:02;;;;;;;1999.90;701.65;;;;;;;13.56;43.72;101532.97;5020748;28;20395;-72
2023/03/28 10:01:33;;;;;;;1999.90;620.65;;;;;;;13.66;44.20;101529.66;5015624;28;20438;-72
2023/03/28 10:03:59;;;;;;;1999.90;577.83;;;;;;;14.87;41.55;101538.31;5027860;28;20506;-72
2023/03/28 10:06:30;;;;;;;1999.90;999.90;;;;;;;14.07;41.62;101532.13;5025308;28;21012;-72
2023/03/28 10:09:10;;;;;;;1999.90;999.90;;;;;;;13.47;42.65;101528.94;5027530;28;20866;-72
2023/03/28 10:11:55;;;;;;;1999.90;999.90;;;;;;;13.74;42.44;101532.81;5017879;28;20399;-72
2023/03/28 10:14:34;;;;;;;1059.68;519.92;;;;;;;16.13;38.59;101525.69;5026669;28;20442;-72
2023/03/28 10:17:02;;;;;;;1999.90;458.95;;;;;;;15.92;36.91;101527.34;5013767;28;20400;-72
2023/03/28 10:19:32;;;;;;;1999.90;709.58;;;;;;;14.38;39.04;101529.00;5030466;28;20411;-72
2023/03/28 10:22:01;;;;;;;1999.90;719.70;;;;;;;13.13;41.00;101527.88;5020387;28;20397;-72
2023/03/28 10:24:27;;;;;;;1999.90;659.28;;;;;;;12.36;42.05;101535.13;5027831;28;20522;-72
2023/03/28 10:26:57;;;;;;;1999.90;702.70;;;;;;;11.95;42.98;101525.00;5014981;28;20751;-72
2023/03/28 10:29:22;;;;;;;1999.90;676.55;;;;;;;12.06;43.52;101528.84;5028969;28;20395;-72
2023/03/28 10:31:49;;;;;;;1999.90;631.60;;;;;;;12.72;42.23;101523.28;5020869;28;20456;-72
2023/03/28 10:34:33;;;;;;;1999.90;593.47;;;;;;;12.63;42.46;101515.72;5015808;28;20412;-72
2023/03/28 10:36:59;;;;;;;1999.90;782.38;;;;;;;14.44;37.64;101517.09;5018422;28;20398;-72
2023/03/28 10:39:29;;;;;;;1386.00;316.05;;;;;;;13.76;37.75;101499.91;5031669;28;20525;-73
2023/03/28 10:41:57;;;;;;;929.35;241.68;;;;;;;12.97;39.35;101515.75;5019709;28;20458;-72
2023/03/28 10:44:27;;;;;;;943.40;226.60;;;;;;;12.53;40.07;101516.28;5029422;28;20419;-72
2023/03/28 10:46:54;;;;;;;649.63;173.23;;;;;;;12.72;39.87;101500.69;5028681;28;20396;-72
2023/03/28 10:49:20;;;;;;;227.05;69.35;;;;;;;14.68;36.42;101495.16;5022681;28;20395;-73
2023/03/28 10:51:45;;;;;;;53.85;19.58;;;;;;;16.43;33.96;101490.44;5021243;28;20412;-73
2023/03/28 10:54:30;;;;;;;14.18;4.07;;;;;;;17.89;31.64;101487.13;5022033;28;20385;-73
2023/03/28 10:57:22;;;;;;;6.65;1.52;;;;;;;18.47;28.83;101481.28;5033005;28;20449;-73
2023/03/28 11:00:06;;;;;;;17.05;1.88;;;;;;;18.45;27.53;101471.66;5020766;28;20412;-73
2023/03/28 11:02:45;;;;;;;3.40;0.95;;;;;;;17.57;26.73;101481.81;5017288;28;20407;-73
2023/03/28 11:05:27;;;;;;;0.80;0.77;;;;;;;17.71;26.81;101479.41;5022510;28;20415;-73
2023/03/28 11:08:20;;;;;;;4.32;1.48;;;;;;;17.87;27.17;101473.72;5029870;28;20399;-73
2023/03/28 11:11:06;;;;;;;4.60;1.15;;;;;;;17.66;28.51;101474.72;5025831;28;20410;-73
2023/03/28 11:13:37;;;;;;;3.92;1.23;;;;;;;17.00;28.76;101468.81;5034110;28;20478;-73
2023/03/28 11:16:21;;;;;;;1.70;1.50;;;;;;;16.88;29.98;101468.19;5031755;28;20398;-72
2023/03/28 11:19:05;;;;;;;6.18;1.60;;;;;;;16.48;29.82;101467.78;5027987;28;20403;-73
2023/03/28 11:21:47;;;;;;;2.95;1.27;;;;;;;16.18;30.53;101468.31;5019809;28;20523;-74
2023/03/28 11:24:21;;;;;;;3.50;1.10;;;;;;;16.36;30.67;101456.19;5028735;28;20466;-74
2023/03/28 11:27:03;;;;;;;3.58;1.88;;;;;;;16.85;30.01;101451.44;5028015;28;20429;-74
2023/03/28 11:29:42;;;;;;;2.63;1.50;;;;;;;17.47;29.69;101451.56;5025264;28;20416;-74
2023/03/28 11:32:39;;;;;;;5.97;1.73;;;;;;;17.68;29.56;101444.31;5033758;28;20399;-74
2023/03/28 11:35:21;;;;;;;1.53;1.43;;;;;;;17.79;28.98;101446.78;5020003;28;20393;-74
2023/03/28 11:38:01;;;;;;;3.40;1.30;;;;;;;17.69;27.57;101440.44;5025620;28;20436;-74
2023/03/28 11:40:48;;;;;;;3.83;1.33;;;;;;;17.53;28.09;101442.28;5024055;28;20765;-74